createdAt,value
2023-03-13T00:01:39.380Z,100578.90
2023-03-13T00:04:07.708Z,100582.02
2023-03-13T00:06:43.873Z,100588.45
2023-03-13T00:09:12.870Z,100597.48
2023-03-13T00:11:42.374Z,100602.92
2023-03-13T00:14:10.863Z,100601.88
2023-03-13T00:16:42.487Z,100601.99
2023-03-13T00:19:12.536Z,100607.55
2023-03-13T00:21:41.643Z,100606.20
2023-03-13T00:24:18.520Z,100606.11
2023-03-13T00:26:47.006Z,100608.41
2023-03-13T00:29:15.275Z,100609.95
2023-03-13T00:31:47.977Z,100606.70
2023-03-13T00:34:17.874Z,100606.13
2023-03-13T00:36:46.768Z,100605.61
2023-03-13T00:39:16.187Z,100606.55
2023-03-13T00:41:46.295Z,100604.40
2023-03-13T00:44:14.883Z,100607.02
2023-03-13T00:46:43.370Z,100606.97
2023-03-13T00:49:11.721Z,100604.96
2023-03-13T00:51:41.866Z,100602.26
2023-03-13T00:54:10.758Z,100597.77
2023-03-13T00:56:42.517Z,100594.15
2023-03-13T00:59:10.899Z,100595.48
2023-03-13T01:01:39.280Z,100597.75
2023-03-13T01:04:09.004Z,100603.52
2023-03-13T01:06:38.200Z,100603.72
2023-03-13T01:09:07.597Z,100603.63
2023-03-13T01:11:37.412Z,100600.95
2023-03-13T01:14:07.251Z,100604.92
2023-03-13T01:16:38.082Z,100601.20
2023-03-13T01:19:13.668Z,100602.20
2023-03-13T01:21:43.447Z,100601.08
2023-03-13T01:24:11.829Z,100601.85
2023-03-13T01:26:42.964Z,100604.36
2023-03-13T01:29:14.007Z,100603.29
2023-03-13T01:31:42.281Z,100607.30
2023-03-13T01:34:15.478Z,100609.60
2023-03-13T01:36:47.037Z,100611.23
2023-03-13T01:39:15.417Z,100615.79
2023-03-13T01:41:49.942Z,100618.73
2023-03-13T01:44:41.159Z,100622.73
2023-03-13T01:47:09.880Z,100633.65
2023-03-13T01:50:00.960Z,100639.89
2023-03-13T01:52:49.824Z,100646.18
2023-03-13T01:55:32.545Z,100653.39
2023-03-13T01:58:00.923Z,100658.19
2023-03-13T02:00:34.041Z,100660.02
2023-03-13T02:03:07.660Z,100665.52
2023-03-13T02:05:36.918Z,100668.87
2023-03-13T02:08:09.680Z,100669.85
2023-03-13T02:10:42.680Z,100678.66
2023-03-13T02:13:19.115Z,100680.17
2023-03-13T02:15:51.222Z,100681.72
2023-03-13T02:18:27.770Z,100681.23
2023-03-13T02:21:12.500Z,100687.61
2023-03-13T02:23:56.014Z,100690.60
2023-03-13T02:26:24.896Z,100685.94
2023-03-13T02:28:57.576Z,100687.98
2023-03-13T02:31:34.044Z,100694.02
2023-03-13T02:34:14.571Z,100695.38
2023-03-13T02:36:57.614Z,100697.60
2023-03-13T02:39:27.698Z,100697.91
2023-03-13T02:42:01.084Z,100701.52
2023-03-13T02:44:30.273Z,100702.69
2023-03-13T02:46:59.383Z,100702.24
2023-03-13T02:49:30.710Z,100704.77
2023-03-13T02:52:11.484Z,100708.89
2023-03-13T02:54:46.338Z,100715.25
2023-03-13T02:57:25.621Z,100718.73
2023-03-13T03:00:00.395Z,100714.13
2023-03-13T03:02:32.349Z,100714.98
2023-03-13T03:05:01.305Z,100717.50
2023-03-13T03:08:03.416Z,100715.66
2023-03-13T03:10:32.926Z,100722.19
2023-03-13T03:13:03.974Z,100730.63
2023-03-13T03:15:33.680Z,100733.96
2023-03-13T03:18:02.067Z,100737.35
2023-03-13T03:20:30.338Z,100735.31
2023-03-13T03:22:58.619Z,100740.15
2023-03-13T03:25:28.221Z,100739.07
2023-03-13T03:27:57.221Z,100740.14
2023-03-13T03:30:26.109Z,100741.23
2023-03-13T03:32:54.702Z,100747.73
2023-03-13T03:35:23.691Z,100757.17
2023-03-13T03:37:53.725Z,100759.65
2023-03-13T03:40:22.614Z,100763.84
2023-03-13T03:42:52.936Z,100770.70
2023-03-13T03:45:41.199Z,100771.73
2023-03-13T03:48:10.680Z,100772.47
2023-03-13T03:50:39.163Z,100776.63
2023-03-13T03:53:13.876Z,100784.88
2023-03-13T03:55:42.382Z,100789.96
2023-03-13T03:58:10.662Z,100796.36
2023-03-13T04:00:57.583Z,100803.53
2023-03-13T04:03:26.628Z,100808.52
2023-03-13T04:05:55.263Z,100818.18
2023-03-13T04:08:26.002Z,100820.64
2023-03-13T04:11:00.635Z,100820.95
2023-03-13T04:13:30.654Z,100826.08
2023-03-13T04:16:00.269Z,100829.06
2023-03-13T04:18:28.550Z,100830.35
2023-03-13T04:21:01.711Z,100835.91
2023-03-13T04:23:31.345Z,100832.57
2023-03-13T04:26:00.664Z,100834.24
2023-03-13T04:28:34.151Z,100834.95
2023-03-13T04:31:04.163Z,100834.66
2023-03-13T04:33:55.789Z,100838.55
2023-03-13T04:36:56.938Z,100838.14
2023-03-13T04:39:54.704Z,100842.61
2023-03-13T04:42:42.157Z,100850.31
2023-03-13T04:45:38.779Z,100852.33
2023-03-13T04:48:42.692Z,100853.02
2023-03-13T04:51:30.532Z,100854.95
2023-03-13T04:54:17.449Z,100859.66
2023-03-13T04:56:55.557Z,100867.00
2023-03-13T05:00:10.440Z,100868.48
2023-03-13T05:03:02.873Z,100867.27
2023-03-13T05:05:54.496Z,100874.23
2023-03-13T05:08:43.057Z,100877.17
2023-03-13T05:11:33.453Z,100877.30
2023-03-13T05:14:19.965Z,100880.60
2023-03-13T05:16:56.736Z,100879.45
2023-03-13T05:19:51.952Z,100881.70
2023-03-13T05:22:31.305Z,100885.30
2023-03-13T05:25:18.612Z,100887.29
2023-03-13T05:28:17.918Z,100884.08
2023-03-13T05:30:46.674Z,100887.63
2023-03-13T05:33:40.280Z,100883.55
2023-03-13T05:36:34.271Z,100890.93
2023-03-13T05:39:18.523Z,100896.45
2023-03-13T05:41:59.599Z,100899.63
2023-03-13T05:45:05.866Z,100898.41
2023-03-13T05:47:35.471Z,100907.63
2023-03-13T05:50:33.261Z,100915.48
2023-03-13T05:53:37.568Z,100914.20
2023-03-13T05:56:32.264Z,100916.08
2023-03-13T05:59:11.094Z,100921.56
2023-03-13T06:01:57.906Z,100921.16
2023-03-13T06:04:31.772Z,100919.13
2023-03-13T06:07:00.709Z,100920.63
2023-03-13T06:09:34.116Z,100924.70
2023-03-13T06:12:02.481Z,100920.27
2023-03-13T06:14:31.486Z,100925.73
2023-03-13T06:17:26.487Z,100922.71
2023-03-13T06:19:54.770Z,100922.98
2023-03-13T06:22:25.223Z,100922.41
2023-03-13T06:24:53.331Z,100922.73
2023-03-13T06:27:21.442Z,100925.30
2023-03-13T06:29:50.539Z,100931.70
2023-03-13T06:32:19.057Z,100932.64
2023-03-13T06:34:47.914Z,100934.91
2023-03-13T06:37:17.116Z,100940.31
2023-03-13T06:39:45.393Z,100943.09
2023-03-13T06:42:13.574Z,100940.08
2023-03-13T06:44:42.260Z,100938.71
2023-03-13T06:47:11.022Z,100943.09
2023-03-13T06:49:39.941Z,100945.20
2023-03-13T06:52:12.961Z,100949.55
2023-03-13T06:54:41.721Z,100950.38
2023-03-13T06:57:09.900Z,100952.40
2023-03-13T06:59:39.516Z,100954.49
2023-03-13T07:02:09.125Z,100949.35
2023-03-13T07:04:39.869Z,100954.52
2023-03-13T07:07:14.992Z,100956.95
2023-03-13T07:09:47.784Z,100960.91
2023-03-13T07:12:17.713Z,100964.52
2023-03-13T07:14:47.630Z,100970.13
2023-03-13T07:17:16.602Z,100969.71
2023-03-13T07:19:44.999Z,100964.13
2023-03-13T07:22:13.481Z,100964.32
2023-03-13T07:24:41.964Z,100966.05
2023-03-13T07:27:10.073Z,100961.16
2023-03-13T07:29:38.528Z,100957.80
2023-03-13T07:32:07.102Z,100958.54
2023-03-13T07:34:35.899Z,100962.75
2023-03-13T07:37:04.894Z,100960.02
2023-03-13T07:39:33.454Z,100963.09
2023-03-13T07:42:01.967Z,100957.66
2023-03-13T07:44:30.331Z,100954.57
2023-03-13T07:47:01.723Z,100955.75
2023-03-13T07:49:30.074Z,100957.41
2023-03-13T07:51:58.454Z,100955.67
2023-03-13T07:54:34.924Z,100954.75
2023-03-13T07:57:03.620Z,100957.64
2023-03-13T07:59:31.791Z,100951.99
2023-03-13T08:02:12.054Z,100943.98
2023-03-13T08:05:00.807Z,100948.38
2023-03-13T08:07:44.667Z,100947.65
2023-03-13T08:10:13.275Z,100942.30
2023-03-13T08:12:41.623Z,100945.45
2023-03-13T08:15:10.999Z,100935.86
2023-03-13T08:17:40.222Z,100935.83
2023-03-13T08:20:10.261Z,100938.88
2023-03-13T08:22:39.755Z,100941.35
2023-03-13T08:25:08.038Z,100942.59
2023-03-13T08:27:37.440Z,100948.05
2023-03-13T08:30:06.530Z,100950.31
2023-03-13T08:32:40.249Z,100946.78
2023-03-13T08:35:08.956Z,100946.45
2023-03-13T08:37:37.100Z,100944.32
2023-03-13T08:40:18.782Z,100941.50
2023-03-13T08:43:09.910Z,100950.29
2023-03-13T08:45:56.841Z,100952.69
2023-03-13T08:48:25.623Z,100951.05
2023-03-13T08:51:06.697Z,100948.77
2023-03-13T08:53:36.853Z,100947.39
2023-03-13T08:56:08.191Z,100941.40
2023-03-13T08:58:36.654Z,100943.64
2023-03-13T09:01:05.520Z,100948.84
2023-03-13T09:03:35.754Z,100949.16
2023-03-13T09:06:04.260Z,100948.38
2023-03-13T09:08:39.857Z,100953.80
2023-03-13T09:11:16.806Z,100949.39
2023-03-13T09:14:32.171Z,100950.89
2023-03-13T09:17:01.578Z,100944.91
2023-03-13T09:19:29.801Z,100942.08
2023-03-13T09:21:58.867Z,100941.91
2023-03-13T09:24:27.290Z,100936.83
2023-03-13T09:27:01.324Z,100938.64
2023-03-13T09:29:30.139Z,100934.23
2023-03-13T09:31:58.318Z,100930.31
2023-03-13T09:34:27.310Z,100927.54
2023-03-13T09:36:55.949Z,100933.11
2023-03-13T09:39:27.560Z,100931.03
2023-03-13T09:42:10.129Z,100929.84
2023-03-13T09:44:58.550Z,100929.71
2023-03-13T09:47:30.622Z,100926.34
2023-03-13T09:50:03.581Z,100921.99
2023-03-13T09:52:49.567Z,100913.95
2023-03-13T09:55:21.632Z,100913.11
2023-03-13T09:57:49.816Z,100915.36
2023-03-13T10:00:28.143Z,100905.63
2023-03-13T10:03:06.657Z,100902.92
2023-03-13T10:05:36.777Z,100902.08
2023-03-13T10:08:13.870Z,100899.29
2023-03-13T10:10:53.193Z,100898.24
2023-03-13T10:13:40.309Z,100893.71
2023-03-13T10:16:10.323Z,100894.47
2023-03-13T10:18:41.061Z,100886.34
2023-03-13T10:21:20.272Z,100884.34
2023-03-13T10:23:49.812Z,100885.15
2023-03-13T10:26:20.030Z,100878.48
2023-03-13T10:28:50.661Z,100872.47
2023-03-13T10:31:24.799Z,100862.61
2023-03-13T10:33:57.199Z,100862.56
2023-03-13T10:36:26.152Z,100859.21
2023-03-13T10:38:55.465Z,100861.68
2023-03-13T10:41:32.184Z,100860.11
2023-03-13T10:44:04.209Z,100858.87
2023-03-13T10:46:34.242Z,100859.63
2023-03-13T10:49:05.054Z,100855.31
2023-03-13T10:51:39.988Z,100853.77
2023-03-13T10:54:37.860Z,100853.54
2023-03-13T10:57:40.651Z,100848.91
2023-03-13T11:00:24.620Z,100848.67
2023-03-13T11:02:52.773Z,100844.94
2023-03-13T11:05:30.860Z,100842.48
2023-03-13T11:07:58.952Z,100829.55
2023-03-13T11:10:37.306Z,100828.13
2023-03-13T11:13:05.751Z,100820.46
2023-03-13T11:15:47.347Z,100814.23
2023-03-13T11:18:16.765Z,100810.31
2023-03-13T11:20:45.872Z,100804.66
2023-03-13T11:23:26.824Z,100804.88
2023-03-13T11:26:14.148Z,100800.72
2023-03-13T11:28:48.977Z,100795.18
2023-03-13T11:31:23.370Z,100792.89
2023-03-13T11:34:01.205Z,100790.51
2023-03-13T11:36:36.763Z,100780.20
2023-03-13T11:39:07.696Z,100779.13
2023-03-13T11:41:45.074Z,100773.79
2023-03-13T11:44:17.485Z,100773.69
2023-03-13T11:47:04.854Z,100770.93
2023-03-13T11:49:42.179Z,100764.23
2023-03-13T11:52:17.164Z,100758.85
2023-03-13T11:54:48.181Z,100758.86
2023-03-13T11:57:16.239Z,100757.94
2023-03-13T11:59:51.336Z,100760.35
2023-03-13T12:02:25.684Z,100755.93
2023-03-13T12:05:08.041Z,100756.33
2023-03-13T12:07:53.487Z,100755.94
2023-03-13T12:10:29.234Z,100757.77
2023-03-13T12:13:14.427Z,100753.77
2023-03-13T12:15:43.816Z,100748.41
2023-03-13T12:18:17.828Z,100746.91
2023-03-13T12:21:05.495Z,100744.04
2023-03-13T12:23:40.005Z,100741.20
2023-03-13T12:26:12.359Z,100732.05
2023-03-13T12:28:45.969Z,100729.00
2023-03-13T12:31:14.184Z,100725.59
2023-03-13T12:33:43.889Z,100731.80
2023-03-13T12:36:19.838Z,100738.92
2023-03-13T12:38:50.258Z,100735.39
2023-03-13T12:41:26.312Z,100738.59
2023-03-13T12:44:07.847Z,100737.39
2023-03-13T12:46:47.575Z,100737.95
2023-03-13T12:49:16.236Z,100736.72
2023-03-13T12:51:52.919Z,100734.96
2023-03-13T12:54:32.145Z,100721.95
2023-03-13T12:57:13.226Z,100725.86
2023-03-13T12:59:42.029Z,100731.02
2023-03-13T13:02:17.256Z,100734.23
2023-03-13T13:04:46.283Z,100733.13
2023-03-13T13:07:25.100Z,100733.39
2023-03-13T13:10:01.047Z,100731.25
2023-03-13T13:12:30.964Z,100728.95
2023-03-13T13:15:00.614Z,100728.92
2023-03-13T13:17:34.405Z,100729.04
2023-03-13T13:20:23.229Z,100722.77
2023-03-13T13:22:52.835Z,100718.30
2023-03-13T13:25:24.291Z,100715.88
2023-03-13T13:27:52.778Z,100709.27
2023-03-13T13:30:21.293Z,100711.14
2023-03-13T13:32:50.546Z,100711.34
2023-03-13T13:35:24.773Z,100714.54
2023-03-13T13:38:03.295Z,100710.84
2023-03-13T13:40:31.990Z,100709.16
2023-03-13T13:43:01.397Z,100704.55
2023-03-13T13:45:34.227Z,100705.58
2023-03-13T13:48:15.823Z,100698.89
2023-03-13T13:51:05.255Z,100699.92
2023-03-13T13:53:35.073Z,100695.54
2023-03-13T13:56:10.622Z,100686.05
2023-03-13T13:58:41.032Z,100680.55
2023-03-13T14:01:14.963Z,100678.88
2023-03-13T14:03:50.733Z,100675.83
2023-03-13T14:06:20.210Z,100676.80
2023-03-13T14:08:49.201Z,100675.17
2023-03-13T14:11:28.445Z,100666.92
2023-03-13T14:14:23.349Z,100665.91
2023-03-13T14:16:57.362Z,100669.27
2023-03-13T14:19:27.929Z,100679.40
2023-03-13T14:22:00.006Z,100669.84
2023-03-13T14:24:28.135Z,100681.52
2023-03-13T14:26:56.319Z,100682.76
2023-03-13T14:29:27.359Z,100682.95
2023-03-13T14:31:56.675Z,100678.13
2023-03-13T14:34:32.752Z,100673.92
2023-03-13T14:37:17.284Z,100680.75
2023-03-13T14:39:46.685Z,100678.95
2023-03-13T14:42:17.932Z,100678.56
2023-03-13T14:44:47.581Z,100672.74
2023-03-13T14:47:25.979Z,100671.89
2023-03-13T14:50:00.793Z,100667.08
2023-03-13T14:52:34.293Z,100666.86
2023-03-13T14:55:05.619Z,100664.53
2023-03-13T14:57:34.325Z,100661.69
2023-03-13T15:00:22.679Z,100655.70
2023-03-13T15:02:51.093Z,100653.81
2023-03-13T15:05:33.389Z,100648.73
2023-03-13T15:08:03.534Z,100643.64
2023-03-13T15:10:38.835Z,100637.64
2023-03-13T15:13:25.649Z,100639.61
2023-03-13T15:15:54.442Z,100635.67
2023-03-13T15:18:23.750Z,100635.68
2023-03-13T15:21:12.091Z,100632.83
2023-03-13T15:23:40.776Z,100631.41
2023-03-13T15:26:08.958Z,100629.73
2023-03-13T15:28:37.233Z,100625.67
2023-03-13T15:31:09.721Z,100626.65
2023-03-13T15:33:37.787Z,100626.81
2023-03-13T15:36:07.296Z,100626.61
2023-03-13T15:38:37.018Z,100629.92
2023-03-13T15:41:05.392Z,100626.38
2023-03-13T15:43:33.662Z,100629.48
2023-03-13T15:46:04.379Z,100630.10
2023-03-13T15:48:33.819Z,100634.29
2023-03-13T15:51:02.791Z,100634.90
2023-03-13T15:53:32.204Z,100636.66
2023-03-13T15:56:00.828Z,100636.05
2023-03-13T15:58:29.482Z,100635.55
2023-03-13T16:00:58.029Z,100637.73
2023-03-13T16:03:27.061Z,100638.98
2023-03-13T16:05:55.648Z,100639.77
2023-03-13T16:08:35.203Z,100642.23
2023-03-13T16:11:04.816Z,100634.89
2023-03-13T16:13:33.797Z,100636.95
2023-03-13T16:16:14.598Z,100634.80
2023-03-13T16:18:42.845Z,100633.13
2023-03-13T16:21:20.347Z,100632.31
2023-03-13T16:23:49.033Z,100631.80
2023-03-13T16:26:18.978Z,100626.02
2023-03-13T16:28:47.631Z,100626.42
2023-03-13T16:31:21.658Z,100619.80
2023-03-13T16:33:53.566Z,100617.30
2023-03-13T16:36:24.242Z,100620.42
2023-03-13T16:39:08.702Z,100616.94
2023-03-13T16:41:36.981Z,100615.75
2023-03-13T16:44:09.785Z,100613.42
2023-03-13T16:46:42.386Z,100611.31
2023-03-13T16:49:13.521Z,100604.62
2023-03-13T16:51:42.079Z,100606.02
2023-03-13T16:54:12.303Z,100609.23
2023-03-13T16:56:44.374Z,100612.72
2023-03-13T16:59:13.410Z,100614.34
2023-03-13T17:01:41.645Z,100610.75
2023-03-13T17:04:09.996Z,100606.73
2023-03-13T17:06:38.919Z,100601.75
2023-03-13T17:09:11.395Z,100599.52
2023-03-13T17:11:40.085Z,100603.20
2023-03-13T17:14:08.826Z,100597.85
2023-03-13T17:16:40.426Z,100595.67
2023-03-13T17:19:10.342Z,100601.39
2023-03-13T17:21:38.722Z,100603.51
2023-03-13T17:24:07.873Z,100605.09
2023-03-13T17:26:41.017Z,100603.59
2023-03-13T17:29:19.232Z,100600.00
2023-03-13T17:31:47.556Z,100602.98
2023-03-13T17:34:17.112Z,100601.38
2023-03-13T17:36:45.712Z,100594.05
2023-03-13T17:39:14.215Z,100593.04
2023-03-13T17:41:43.072Z,100593.02
2023-03-13T17:44:11.351Z,100585.81
2023-03-13T17:46:45.013Z,100582.95
2023-03-13T17:49:16.822Z,100580.08
2023-03-13T17:51:46.564Z,100582.61
2023-03-13T17:54:16.009Z,100584.25
2023-03-13T17:56:44.723Z,100583.98
2023-03-13T17:59:14.134Z,100581.52
2023-03-13T18:01:42.600Z,100584.52
2023-03-13T18:04:12.021Z,100584.82
2023-03-13T18:06:43.167Z,100583.83
2023-03-13T18:09:15.452Z,100584.69
2023-03-13T18:11:48.332Z,100586.42
2023-03-13T18:14:19.680Z,100585.69
2023-03-13T18:16:50.478Z,100584.17
2023-03-13T18:19:25.769Z,100579.93
2023-03-13T18:21:55.552Z,100582.55
2023-03-13T18:24:27.915Z,100576.91
2023-03-13T18:26:56.431Z,100578.95
2023-03-13T18:29:29.449Z,100581.70
2023-03-13T18:31:59.187Z,100582.30
2023-03-13T18:34:27.720Z,100581.80
2023-03-13T18:36:56.349Z,100579.59
2023-03-13T18:39:27.403Z,100581.61
2023-03-13T18:41:55.831Z,100581.77
2023-03-13T18:44:24.327Z,100581.84
2023-03-13T18:46:53.297Z,100580.84
2023-03-13T18:49:21.993Z,100579.58
2023-03-13T18:51:53.139Z,100579.20
2023-03-13T18:54:21.254Z,100577.69
2023-03-13T18:56:49.400Z,100578.05
2023-03-13T18:59:21.220Z,100575.09
2023-03-13T19:01:49.709Z,100569.71
2023-03-13T19:04:18.740Z,100570.96
2023-03-13T19:06:51.626Z,100566.61
2023-03-13T19:09:42.846Z,100563.33
2023-03-13T19:12:10.503Z,100559.03
2023-03-13T19:14:38.986Z,100564.11
2023-03-13T19:17:27.237Z,100569.30
2023-03-13T19:19:57.586Z,100568.95
2023-03-13T19:22:25.848Z,100568.58
2023-03-13T19:24:54.543Z,100570.12
2023-03-13T19:27:22.807Z,100567.58
2023-03-13T19:29:50.990Z,100566.64
2023-03-13T19:32:19.735Z,100565.37
2023-03-13T19:34:50.024Z,100560.75
2023-03-13T19:37:21.282Z,100558.98
2023-03-13T19:40:01.836Z,100561.66
2023-03-13T19:42:55.216Z,100561.23
2023-03-13T19:45:51.869Z,100559.86
2023-03-13T19:48:34.538Z,100559.77
2023-03-13T19:51:21.488Z,100554.89
2023-03-13T19:54:23.432Z,100558.45
2023-03-13T19:57:04.814Z,100561.22
2023-03-13T19:59:56.601Z,100556.00
2023-03-13T20:03:07.568Z,100552.77
2023-03-13T20:05:55.401Z,100543.95
2023-03-13T20:08:52.306Z,100544.73
2023-03-13T20:11:49.154Z,100549.41
2023-03-13T20:14:40.077Z,100546.33
2023-03-13T20:17:30.261Z,100545.73
2023-03-13T20:27:15.298Z,100540.52
2023-03-13T20:29:43.666Z,100538.73
2023-03-13T20:32:13.700Z,100532.32
2023-03-13T20:34:42.175Z,100532.20
2023-03-13T20:37:10.759Z,100532.91
2023-03-13T20:39:44.051Z,100532.20
2023-03-13T20:42:13.365Z,100534.84
2023-03-13T20:44:42.147Z,100538.81
2023-03-13T20:47:10.525Z,100535.99
2023-03-13T20:49:41.368Z,100539.95
2023-03-13T20:52:09.643Z,100537.13
2023-03-13T20:54:39.047Z,100535.54
2023-03-13T20:57:08.869Z,100540.41
2023-03-13T20:59:37.549Z,100537.92
2023-03-13T21:02:06.799Z,100536.21
2023-03-13T21:04:37.562Z,100537.88
2023-03-13T21:07:05.766Z,100537.10
2023-03-13T21:09:36.511Z,100538.29
2023-03-13T21:12:05.532Z,100539.39
2023-03-13T21:14:35.308Z,100534.05
2023-03-13T21:17:04.340Z,100540.87
2023-03-13T21:19:34.328Z,100542.26
2023-03-13T21:22:02.504Z,100540.33
2023-03-13T21:24:32.183Z,100540.84
2023-03-13T21:27:01.413Z,100539.80
2023-03-13T21:29:37.914Z,100538.86
2023-03-13T21:32:06.778Z,100539.98
2023-03-13T21:34:35.262Z,100537.02
2023-03-13T21:37:03.795Z,100534.67
2023-03-13T21:39:32.470Z,100535.88
2023-03-13T21:42:00.921Z,100538.52
2023-03-13T21:44:29.508Z,100544.14
2023-03-13T21:46:57.806Z,100543.09
2023-03-13T21:49:26.361Z,100541.27
2023-03-13T21:51:56.727Z,100544.24
2023-03-13T21:54:26.987Z,100542.42
2023-03-13T21:56:55.837Z,100543.43
2023-03-13T21:59:27.642Z,100537.15
2023-03-13T22:01:56.754Z,100532.63
2023-03-13T22:04:27.912Z,100526.27
2023-03-13T22:06:57.218Z,100528.57
2023-03-13T22:09:26.048Z,100527.59
2023-03-13T22:11:57.663Z,100531.14
2023-03-13T22:14:28.228Z,100529.86
2023-03-13T22:16:56.379Z,100531.84
2023-03-13T22:19:27.412Z,100529.29
2023-03-13T22:21:55.770Z,100530.90
2023-03-13T22:24:24.077Z,100526.77
2023-03-13T22:26:53.487Z,100527.87
2023-03-13T22:29:23.089Z,100527.61
2023-03-13T22:31:51.776Z,100529.59
2023-03-13T22:34:20.362Z,100533.48
2023-03-13T22:36:48.945Z,100525.07
2023-03-13T22:39:17.750Z,100520.17
2023-03-13T22:41:45.921Z,100517.77
2023-03-13T22:44:15.339Z,100523.70
2023-03-13T22:46:43.619Z,100521.09
2023-03-13T22:49:15.580Z,100520.63
2023-03-13T22:51:44.326Z,100515.80
2023-03-13T22:54:12.482Z,100516.41
2023-03-13T22:56:40.706Z,100512.53
2023-03-13T22:59:09.089Z,100508.23
2023-03-13T23:01:38.902Z,100504.80
2023-03-13T23:04:07.184Z,100508.03
2023-03-13T23:06:35.464Z,100510.12
2023-03-13T23:09:03.943Z,100506.13
2023-03-13T23:11:32.449Z,100500.05
2023-03-13T23:14:01.151Z,100501.09
2023-03-13T23:16:29.912Z,100490.96
2023-03-13T23:18:58.837Z,100490.84
2023-03-13T23:21:27.796Z,100486.84
2023-03-13T23:23:56.140Z,100483.23
2023-03-13T23:26:24.356Z,100486.30
2023-03-13T23:28:54.171Z,100483.33
2023-03-13T23:31:22.616Z,100475.53
2023-03-13T23:33:53.286Z,100477.63
2023-03-13T23:36:22.069Z,100473.85
2023-03-13T23:38:51.107Z,100470.95
2023-03-13T23:41:19.859Z,100475.35
2023-03-13T23:43:48.148Z,100475.84
2023-03-13T23:46:23.493Z,100478.97
2023-03-13T23:48:53.311Z,100480.44
2023-03-13T23:51:24.969Z,100476.55
2023-03-13T23:53:53.355Z,100470.77
2023-03-13T23:56:53.562Z,100471.09
2023-03-13T23:59:22.059Z,100470.83
